Time;durP1;ratioP1;P1;durP2;ratioP2;P2;SDS_P1;SDS_P2;PMS_P1;PMS_P2;Temp;Humidity;BMP_temperature;BMP_pressure;BME280_temperature;BME280_humidity;BME280_pressure;Samples;Min_cycle;Max_cycle;Signal;HPM_P1;HPM_P2
2023/09/16 00:02:24;;;;;;;5.05;3.10;;;15.40;99.90;;;;;;5044449;28;20032;-68
2023/09/16 00:04:51;;;;;;;4.07;2.72;;;15.40;99.90;;;;;;5053213;28;20499;-68
2023/09/16 00:07:17;;;;;;;5.20;2.70;;;15.30;99.90;;;;;;5050862;28;20040;-65
2023/09/16 00:09:42;;;;;;;5.97;3.83;;;15.20;99.90;;;;;;5044107;28;20040;-68
2023/09/16 00:12:09;;;;;;;3.53;2.78;;;15.10;99.90;;;;;;5049003;28;20021;-68
2023/09/16 00:14:35;;;;;;;6.28;3.75;;;15.00;99.90;;;;;;5050269;28;20421;-68
2023/09/16 00:17:03;;;;;;;4.35;3.00;;;14.90;99.90;;;;;;5053724;28;20525;-67
2023/09/16 00:19:29;;;;;;;5.50;2.95;;;14.80;99.90;;;;;;5048995;28;20065;-68
2023/09/16 00:21:55;;;;;;;5.65;2.90;;;14.80;99.90;;;;;;5053164;28;20051;-68
2023/09/16 00:24:21;;;;;;;5.50;3.25;;;14.70;99.90;;;;;;5040852;28;20025;-68
2023/09/16 00:26:46;;;;;;;6.57;2.85;;;14.60;99.90;;;;;;5044061;28;20116;-67
2023/09/16 00:29:12;;;;;;;6.30;2.92;;;14.60;99.90;;;;;;5048593;28;20063;-68
2023/09/16 00:31:38;;;;;;;4.93;3.10;;;14.60;99.90;;;;;;5044879;28;20548;-68
2023/09/16 00:34:03;;;;;;;4.78;3.17;;;14.60;99.90;;;;;;5050147;28;20088;-67
2023/09/16 00:36:29;;;;;;;7.20;3.95;;;14.50;99.90;;;;;;5047448;28;20021;-68
2023/09/16 00:38:55;;;;;;;5.30;3.58;;;14.50;99.90;;;;;;5054932;28;20086;-68
2023/09/16 00:41:21;;;;;;;7.32;3.70;;;14.50;99.90;;;;;;5047603;28;20032;-68
2023/09/16 00:43:46;;;;;;;5.65;3.50;;;14.50;99.90;;;;;;5049680;28;20113;-67
2023/09/16 00:46:12;;;;;;;11.00;3.97;;;14.50;99.90;;;;;;5046958;28;20063;-68
2023/09/16 00:48:39;;;;;;;8.05;3.45;;;14.50;99.90;;;;;;5046462;28;20083;-68
2023/09/16 00:51:06;;;;;;;6.25;3.63;;;14.50;99.90;;;;;;5044415;28;20032;-68
2023/09/16 00:53:33;;;;;;;4.55;3.38;;;14.50;99.90;;;;;;5043101;28;20442;-68
2023/09/16 00:55:59;;;;;;;5.43;3.80;;;14.50;99.90;;;;;;5044274;28;20052;-68
2023/09/16 00:58:25;;;;;;;7.45;3.88;;;14.50;99.90;;;;;;5046405;28;20059;-68
2023/09/16 01:00:52;;;;;;;9.30;3.30;;;14.50;99.90;;;;;;5055101;28;20039;-67
2023/09/16 01:03:18;;;;;;;6.75;3.15;;;14.60;99.90;;;;;;5043642;28;20029;-67
2023/09/16 01:05:46;;;;;;;6.43;3.08;;;14.70;99.90;;;;;;5046881;28;20040;-68
2023/09/16 01:08:12;;;;;;;7.68;4.00;;;14.80;99.90;;;;;;5040764;28;20021;-68
2023/09/16 01:10:40;;;;;;;5.38;3.53;;;14.90;99.90;;;;;;5044225;28;20032;-68
2023/09/16 01:13:08;;;;;;;8.57;3.35;;;14.90;99.90;;;;;;5047626;28;20021;-68
2023/09/16 01:15:39;;;;;;;4.80;3.10;;;15.00;99.90;;;;;;5057538;28;20021;-68
2023/09/16 01:18:21;;;;;;;5.00;3.25;;;15.00;99.90;;;;;;5047964;28;20047;-68
2023/09/16 01:20:48;;;;;;;5.38;2.53;;;15.10;99.90;;;;;;5048727;28;20021;-67
2023/09/16 01:23:18;;;;;;;6.18;3.65;;;15.20;99.90;;;;;;5037939;28;20033;-68
2023/09/16 01:25:44;;;;;;;4.90;3.30;;;15.30;99.90;;;;;;5044052;28;20115;-68
2023/09/16 01:28:09;;;;;;;5.68;3.22;;;15.40;99.90;;;;;;5046144;28;20096;-68
2023/09/16 01:30:39;;;;;;;4.47;3.63;;;15.50;99.90;;;;;;5044864;28;20021;-67
2023/09/16 01:33:28;;;;;;;4.60;3.45;;;15.50;99.90;;;;;;5048833;28;20099;-68
2023/09/16 01:36:02;;;;;;;5.35;2.80;;;15.50;99.90;;;;;;5038958;28;20509;-68
2023/09/16 01:38:31;;;;;;;5.10;2.97;;;15.50;99.90;;;;;;5047582;28;20497;-68
2023/09/16 01:40:58;;;;;;;5.65;2.72;;;15.50;99.90;;;;;;5046140;28;20040;-68
2023/09/16 01:43:24;;;;;;;5.20;3.38;;;15.50;99.90;;;;;;5045186;28;20100;-68
2023/09/16 01:45:49;;;;;;;4.68;3.72;;;15.40;99.90;;;;;;5057440;28;20025;-68
2023/09/16 01:48:16;;;;;;;5.18;3.20;;;15.30;99.90;;;;;;5041987;28;20653;-68
2023/09/16 01:50:42;;;;;;;6.05;3.45;;;15.20;99.90;;;;;;5045056;28;20044;-68
2023/09/16 01:53:07;;;;;;;5.22;3.28;;;15.10;99.90;;;;;;5048525;28;20119;-68
2023/09/16 01:55:34;;;;;;;5.13;3.50;;;15.10;99.90;;;;;;5050893;28;20381;-68
2023/09/16 01:57:59;;;;;;;16.02;3.63;;;15.00;99.90;;;;;;5045948;28;20020;-68
2023/09/16 02:00:25;;;;;;;4.22;2.80;;;15.00;99.90;;;;;;5043783;28;20029;-68
2023/09/16 02:02:51;;;;;;;7.38;3.47;;;15.00;99.90;;;;;;5050263;28;20032;-66
2023/09/16 02:05:16;;;;;;;4.57;3.60;;;15.00;99.90;;;;;;5054665;28;20024;-67
2023/09/16 02:07:42;;;;;;;4.82;2.90;;;15.00;99.90;;;;;;5052014;28;20037;-68
2023/09/16 02:10:09;;;;;;;6.80;3.30;;;15.00;99.90;;;;;;5047511;28;20063;-68
2023/09/16 02:12:36;;;;;;;6.85;3.53;;;14.90;99.90;;;;;;5046696;28;20025;-67
2023/09/16 02:15:04;;;;;;;5.65;3.30;;;14.90;99.90;;;;;;5042468;28;20017;-67
2023/09/16 02:17:30;;;;;;;5.63;3.35;;;14.90;99.90;;;;;;5041987;28;20021;-68
2023/09/16 02:19:55;;;;;;;4.63;3.33;;;14.80;99.90;;;;;;5047660;28;20074;-67
2023/09/16 02:22:21;;;;;;;7.40;3.65;;;14.70;99.90;;;;;;5045017;28;20038;-68
2023/09/16 02:24:47;;;;;;;6.60;3.78;;;14.70;99.90;;;;;;5042809;28;20028;-68
2023/09/16 02:27:12;;;;;;;6.25;3.67;;;14.60;99.90;;;;;;5044429;28;20544;-67
2023/09/16 02:29:38;;;;;;;6.38;3.88;;;14.70;99.90;;;;;;5045774;28;20033;-68
2023/09/16 02:32:04;;;;;;;6.07;3.30;;;14.70;99.90;;;;;;5041464;28;20033;-68
2023/09/16 02:34:31;;;;;;;5.50;3.65;;;14.70;99.90;;;;;;5042609;28;20525;-68
2023/09/16 02:36:58;;;;;;;5.18;3.45;;;14.80;99.90;;;;;;5046054;28;20100;-67
2023/09/16 02:39:24;;;;;;;4.85;3.22;;;14.80;99.90;;;;;;5043906;28;20104;-68
2023/09/16 02:41:49;;;;;;;5.68;3.83;;;14.80;99.90;;;;;;5047486;28;20137;-68
2023/09/16 02:44:15;;;;;;;8.13;3.55;;;14.80;99.90;;;;;;5041421;28;20025;-67
2023/09/16 02:46:41;;;;;;;4.50;3.28;;;14.80;99.90;;;;;;5048897;28;20100;-67
2023/09/16 02:49:06;;;;;;;6.13;3.60;;;14.70;99.90;;;;;;5047830;28;20029;-67
2023/09/16 02:51:32;;;;;;;7.57;3.03;;;14.70;99.90;;;;;;5023361;28;20041;-68
2023/09/16 02:53:58;;;;;;;6.95;3.53;;;14.60;99.90;;;;;;5048842;28;20029;-68
2023/09/16 02:56:23;;;;;;;4.10;3.15;;;14.60;99.90;;;;;;5040839;28;20578;-68
2023/09/16 02:58:49;;;;;;;5.05;3.65;;;14.60;99.90;;;;;;5046566;28;20022;-68
2023/09/16 03:01:15;;;;;;;5.85;3.53;;;14.60;99.90;;;;;;5046418;28;20033;-67
2023/09/16 03:03:40;;;;;;;6.25;3.42;;;14.70;99.90;;;;;;5048782;28;20025;-68
2023/09/16 03:06:06;;;;;;;5.38;3.28;;;14.80;99.90;;;;;;5054416;28;20430;-68
2023/09/16 03:08:32;;;;;;;5.15;2.55;;;14.80;99.90;;;;;;5045761;28;20490;-67
2023/09/16 03:11:03;;;;;;;6.53;3.53;;;14.90;99.90;;;;;;5048806;28;20029;-68
2023/09/16 03:13:28;;;;;;;5.40;3.28;;;14.90;99.90;;;;;;5053671;28;20025;-68
2023/09/16 03:16:15;;;;;;;8.80;3.97;;;14.90;99.90;;;;;;5050380;28;20036;-67
2023/09/16 03:18:48;;;;;;;4.75;2.95;;;14.90;99.90;;;;;;5050569;28;20025;-68
2023/09/16 03:21:16;;;;;;;6.07;2.75;;;15.00;99.90;;;;;;5054308;28;20911;-68
2023/09/16 03:23:42;;;;;;;5.32;2.75;;;15.00;99.90;;;;;;5054994;28;20041;-68
2023/09/16 03:26:09;;;;;;;5.13;3.40;;;15.00;99.90;;;;;;5026566;28;20135;-68
2023/09/16 03:28:35;;;;;;;4.30;3.28;;;15.00;99.90;;;;;;5051317;28;20025;-68
2023/09/16 03:31:01;;;;;;;4.97;3.03;;;15.00;99.90;;;;;;5051084;28;20078;-68
2023/09/16 03:33:26;;;;;;;6.05;3.75;;;15.00;99.90;;;;;;5052107;28;20033;-68
2023/09/16 03:35:52;;;;;;;4.78;3.10;;;15.10;99.90;;;;;;5047895;28;20037;-68
2023/09/16 03:38:18;;;;;;;6.70;3.83;;;15.10;99.90;;;;;;5047537;28;20490;-67
2023/09/16 03:40:43;;;;;;;5.82;3.03;;;15.10;99.90;;;;;;5057218;28;20434;-68
2023/09/16 03:43:09;;;;;;;5.95;3.22;;;15.10;99.90;;;;;;5060924;28;20104;-67
2023/09/16 03:45:35;;;;;;;5.07;3.20;;;15.10;99.90;;;;;;5048908;28;20021;-68
2023/09/16 03:48:00;;;;;;;8.88;3.95;;;15.10;99.90;;;;;;5051743;28;20390;-68
2023/09/16 03:50:27;;;;;;;4.50;3.05;;;15.10;99.90;;;;;;5046504;28;20021;-68
2023/09/16 03:52:53;;;;;;;4.25;3.67;;;15.10;99.90;;;;;;5053791;28;20037;-67
2023/09/16 03:55:19;;;;;;;4.55;3.33;;;15.10;99.90;;;;;;5063240;28;20033;-67
2023/09/16 03:57:44;;;;;;;3.95;3.00;;;15.10;99.90;;;;;;5049181;28;20048;-68
2023/09/16 04:00:10;;;;;;;5.40;3.35;;;15.10;99.90;;;;;;5048359;28;20074;-68
2023/09/16 04:02:38;;;;;;;7.85;3.92;;;15.10;99.90;;;;;;5054871;28;20138;-68
2023/09/16 04:05:05;;;;;;;5.88;3.10;;;15.10;99.90;;;;;;5049776;28;20038;-67
2023/09/16 04:07:31;;;;;;;5.88;3.25;;;15.00;99.90;;;;;;5047823;28;20044;-67
2023/09/16 04:09:56;;;;;;;5.43;3.75;;;14.90;99.90;;;;;;5043294;28;20056;-67
2023/09/16 04:12:22;;;;;;;4.07;3.03;;;14.90;99.90;;;;;;5046631;28;20045;-68
2023/09/16 04:14:48;;;;;;;6.22;3.28;;;14.90;99.90;;;;;;5048285;28;20056;-68
2023/09/16 04:17:13;;;;;;;4.85;3.28;;;14.80;99.90;;;;;;5044309;28;20041;-68
2023/09/16 04:19:39;;;;;;;5.50;3.42;;;14.90;99.90;;;;;;5048166;28;20133;-67
2023/09/16 04:22:04;;;;;;;4.35;2.95;;;15.00;99.90;;;;;;5050528;28;20025;-68
2023/09/16 04:24:30;;;;;;;2.97;2.53;;;15.10;99.90;;;;;;5051649;28;20103;-68
2023/09/16 04:26:56;;;;;;;5.95;4.30;;;15.10;99.90;;;;;;5044225;28;20025;-68
2023/09/16 04:29:21;;;;;;;4.47;3.22;;;15.10;99.90;;;;;;5052531;28;20040;-67
2023/09/16 04:31:47;;;;;;;5.97;3.67;;;15.20;99.90;;;;;;5045684;28;20021;-68
2023/09/16 04:34:14;;;;;;;5.35;3.55;;;15.20;99.90;;;;;;5050255;28;20494;-68
2023/09/16 04:36:40;;;;;;;6.72;3.45;;;15.20;99.90;;;;;;5042135;28;20499;-68
2023/09/16 04:39:06;;;;;;;6.28;4.75;;;15.20;99.90;;;;;;5060272;28;20072;-68
2023/09/16 04:41:31;;;;;;;9.32;3.78;;;15.30;99.90;;;;;;5055096;28;20493;-66
2023/09/16 04:43:57;;;;;;;4.45;3.25;;;15.20;99.90;;;;;;5048505;28;20474;-67
2023/09/16 04:46:23;;;;;;;8.32;3.33;;;15.20;99.90;;;;;;5059459;28;20059;-67
2023/09/16 04:48:49;;;;;;;7.68;3.10;;;15.20;99.90;;;;;;5051592;28;20029;-67
2023/09/16 04:51:15;;;;;;;4.20;3.20;;;15.10;99.90;;;;;;5056100;28;20020;-67
2023/09/16 04:53:41;;;;;;;5.50;3.20;;;15.10;99.90;;;;;;5054374;28;20071;-67
2023/09/16 04:56:09;;;;;;;7.20;3.95;;;15.10;99.90;;;;;;5048802;28;20059;-67
2023/09/16 04:58:35;;;;;;;3.55;2.83;;;15.10;99.90;;;;;;5040826;28;20028;-67
2023/09/16 05:01:04;;;;;;;3.97;3.00;;;15.00;99.90;;;;;;5036111;28;20061;-66
2023/09/16 05:03:30;;;;;;;7.13;3.17;;;15.00;99.90;;;;;;5042006;28;20486;-67
2023/09/16 05:05:55;;;;;;;6.57;3.55;;;15.00;99.90;;;;;;5051738;28;20021;-67
2023/09/16 05:08:21;;;;;;;4.30;3.15;;;15.00;99.90;;;;;;5063409;28;20033;-67
2023/09/16 05:10:54;;;;;;;5.53;3.60;;;14.90;99.90;;;;;;5057653;28;20021;-67
2023/09/16 05:13:20;;;;;;;5.53;3.60;;;14.80;99.90;;;;;;5054075;28;20044;-66
2023/09/16 05:15:50;;;;;;;3.78;2.95;;;14.80;99.90;;;;;;5051280;28;20025;-67
2023/09/16 05:18:16;;;;;;;9.43;3.10;;;14.80;99.90;;;;;;5045191;28;20036;-67
2023/09/16 05:20:42;;;;;;;5.75;4.35;;;14.80;99.90;;;;;;5049396;28;20024;-66
2023/09/16 05:23:08;;;;;;;4.47;3.35;;;14.80;99.90;;;;;;5049664;28;20111;-67
2023/09/16 05:25:33;;;;;;;7.75;3.65;;;14.80;99.90;;;;;;5055858;28;20025;-67
2023/09/16 05:27:59;;;;;;;4.18;3.55;;;14.80;99.90;;;;;;5049644;28;20028;-67
2023/09/16 05:30:24;;;;;;;3.35;2.88;;;14.80;99.90;;;;;;5046830;28;20747;-67
2023/09/16 05:32:50;;;;;;;5.40;3.03;;;14.80;99.90;;;;;;5047510;28;20017;-66
2023/09/16 05:35:16;;;;;;;9.45;3.58;;;14.80;99.90;;;;;;5044043;28;20116;-67
2023/09/16 05:37:41;;;;;;;5.65;3.30;;;14.80;99.90;;;;;;5047768;28;20028;-67
2023/09/16 05:40:07;;;;;;;5.25;3.30;;;14.90;99.90;;;;;;5054377;28;20041;-67
2023/09/16 05:42:33;;;;;;;4.53;2.95;;;14.90;99.90;;;;;;5044686;28;20025;-67
2023/09/16 05:45:00;;;;;;;18.63;3.15;;;15.10;99.90;;;;;;5052628;28;20112;-67
2023/09/16 05:47:29;;;;;;;4.28;3.22;;;15.10;99.90;;;;;;5052349;28;20021;-67
2023/09/16 05:49:54;;;;;;;5.53;3.42;;;15.20;99.90;;;;;;5050694;28;20075;-67
2023/09/16 05:52:20;;;;;;;6.25;4.00;;;15.30;99.90;;;;;;5046584;28;20500;-67
2023/09/16 05:54:46;;;;;;;6.13;2.83;;;15.40;99.90;;;;;;5046023;28;20044;-67
2023/09/16 05:57:12;;;;;;;5.15;3.22;;;15.50;99.90;;;;;;5039868;28;20495;-67
2023/09/16 05:59:37;;;;;;;4.63;3.00;;;15.50;99.90;;;;;;5051189;28;20021;-67
2023/09/16 06:02:03;;;;;;;4.75;3.97;;;15.60;99.90;;;;;;5049318;28;20028;-67
2023/09/16 06:04:30;;;;;;;6.32;3.38;;;15.90;99.90;;;;;;5046784;28;20028;-67
2023/09/16 06:06:56;;;;;;;9.65;3.10;;;16.30;99.90;;;;;;5049007;28;20486;-67
2023/09/16 06:09:21;;;;;;;6.13;2.75;;;16.70;99.90;;;;;;5044460;28;20047;-66
2023/09/16 06:11:47;;;;;;;5.30;3.20;;;16.80;99.90;;;;;;5039485;28;20092;-67
2023/09/16 06:14:12;;;;;;;6.10;2.97;;;16.80;99.90;;;;;;5049591;28;20020;-67
2023/09/16 06:16:38;;;;;;;5.28;2.75;;;16.80;99.90;;;;;;5051612;28;20037;-67
2023/09/16 06:19:03;;;;;;;4.75;3.50;;;16.90;99.90;;;;;;5051102;28;20036;-66
2023/09/16 06:21:30;;;;;;;4.40;2.88;;;16.90;99.90;;;;;;5056385;28;20033;-67
2023/09/16 06:23:55;;;;;;;5.68;2.70;;;16.90;99.90;;;;;;5053922;28;20131;-67
2023/09/16 06:26:21;;;;;;;6.00;2.72;;;16.90;99.90;;;;;;5052551;28;20692;-67
2023/09/16 06:28:47;;;;;;;4.03;2.60;;;17.00;99.90;;;;;;5049629;28;20087;-67
2023/09/16 06:31:12;;;;;;;4.50;2.92;;;17.00;99.90;;;;;;5044241;28;20036;-66
2023/09/16 06:33:38;;;;;;;5.90;2.58;;;17.10;99.90;;;;;;5055890;28;20051;-67
2023/09/16 06:36:03;;;;;;;3.85;2.70;;;17.20;99.90;;;;;;5047015;28;20021;-66
2023/09/16 06:38:29;;;;;;;5.00;2.80;;;17.40;99.90;;;;;;5047327;28;20032;-67
2023/09/16 06:40:55;;;;;;;3.92;2.67;;;17.60;99.90;;;;;;5047086;28;20029;-67
2023/09/16 06:43:21;;;;;;;2.95;2.65;;;17.80;99.90;;;;;;5044016;28;20037;-65
2023/09/16 06:45:49;;;;;;;5.22;2.63;;;17.90;99.90;;;;;;5050245;28;20048;-67
2023/09/16 06:48:15;;;;;;;3.70;2.05;;;17.90;99.90;;;;;;5058049;28;20067;-67
2023/09/16 06:50:41;;;;;;;3.80;3.03;;;17.90;99.90;;;;;;5054863;28;20021;-66
2023/09/16 06:53:07;;;;;;;2.78;2.40;;;17.90;99.90;;;;;;5049624;28;20027;-67
2023/09/16 06:55:33;;;;;;;4.32;1.85;;;18.20;99.90;;;;;;5051448;28;20021;-67
2023/09/16 06:57:59;;;;;;;3.65;1.90;;;18.80;99.90;;;;;;5048104;28;20048;-67
2023/09/16 07:00:24;;;;;;;5.03;2.35;;;19.90;99.90;;;;;;5053746;28;20033;-67
2023/09/16 07:02:50;;;;;;;3.35;2.08;;;21.30;99.90;;;;;;5052819;28;20027;-67
2023/09/16 07:05:15;;;;;;;3.85;2.08;;;22.60;99.90;;;;;;5048568;28;20025;-67
2023/09/16 07:07:42;;;;;;;5.45;1.88;;;23.20;99.30;;;;;;5051973;28;20082;-68
2023/09/16 07:10:08;;;;;;;2.97;1.75;;;23.80;97.50;;;;;;5044943;28;20591;-67
2023/09/16 07:12:34;;;;;;;7.18;2.03;;;23.30;98.00;;;;;;5038603;28;20057;-68
2023/09/16 07:14:59;;;;;;;4.50;2.15;;;22.80;98.60;;;;;;5054044;28;20027;-67
2023/09/16 07:17:25;;;;;;;1.83;1.45;;;22.30;99.90;;;;;;5060959;28;20037;-67
2023/09/16 07:19:50;;;;;;;1.98;1.63;;;21.90;99.90;;;;;;5056358;28;20029;-67
2023/09/16 07:22:18;;;;;;;3.20;1.77;;;21.70;99.90;;;;;;5059081;28;20119;-67
2023/09/16 07:24:44;;;;;;;2.78;1.90;;;21.60;99.90;;;;;;5055867;28;20380;-67
2023/09/16 07:27:09;;;;;;;5.10;1.88;;;21.90;99.90;;;;;;5048189;28;20024;-67
2023/09/16 07:29:35;;;;;;;6.10;1.95;;;22.00;99.90;;;;;;5061550;28;20053;-67
2023/09/16 07:32:00;;;;;;;4.35;2.00;;;22.00;99.90;;;;;;5056278;28;20021;-67
2023/09/16 07:34:26;;;;;;;5.43;2.30;;;22.70;99.70;;;;;;5056991;28;20465;-67
2023/09/16 07:36:52;;;;;;;3.00;1.77;;;23.60;98.40;;;;;;5056853;28;20012;-67
2023/09/16 07:39:18;;;;;;;3.15;1.88;;;24.40;97.80;;;;;;5055555;28;20025;-65
2023/09/16 07:41:44;;;;;;;3.08;1.65;;;25.50;95.50;;;;;;5052066;28;20223;-68
2023/09/16 07:44:09;;;;;;;4.03;1.90;;;25.90;95.30;;;;;;5055962;28;20048;-68
2023/09/16 07:46:35;;;;;;;4.55;1.55;;;26.60;93.40;;;;;;5057164;28;20034;-68
2023/09/16 07:49:01;;;;;;;2.78;2.20;;;27.10;92.30;;;;;;5053173;28;20025;-68
2023/09/16 07:51:26;;;;;;;4.30;1.75;;;27.10;91.80;;;;;;5043031;28;21099;-68
2023/09/16 07:53:52;;;;;;;4.55;1.70;;;27.50;92.10;;;;;;5041822;28;20033;-67
2023/09/16 07:56:18;;;;;;;2.10;1.60;;;28.00;90.20;;;;;;5055898;28;20082;-68
2023/09/16 07:58:44;;;;;;;3.17;1.80;;;27.30;90.50;;;;;;5046885;28;20067;-68
2023/09/16 08:01:09;;;;;;;3.42;2.53;;;27.60;90.00;;;;;;5047964;28;20033;-67
2023/09/16 08:03:37;;;;;;;8.32;1.83;;;27.40;91.10;;;;;;5046618;28;20033;-68
2023/09/16 08:06:03;;;;;;;2.88;1.88;;;27.80;90.70;;;;;;5050871;28;20021;-68
2023/09/16 08:08:29;;;;;;;2.38;1.77;;;28.60;88.40;;;;;;5057373;28;20033;-68
2023/09/16 08:10:55;;;;;;;3.47;2.10;;;28.40;88.70;;;;;;5055505;28;20506;-67
2023/09/16 08:13:21;;;;;;;7.03;2.00;;;28.70;86.10;;;;;;5050269;28;20029;-67
2023/09/16 08:15:46;;;;;;;2.35;1.42;;;28.40;89.30;;;;;;5049254;28;21188;-68
2023/09/16 08:18:12;;;;;;;2.50;1.83;;;28.80;86.00;;;;;;5051374;28;20033;-68
2023/09/16 08:20:38;;;;;;;4.80;2.10;;;29.00;85.60;;;;;;5044273;28;20066;-68
2023/09/16 08:23:04;;;;;;;2.05;1.52;;;29.20;83.90;;;;;;5043026;28;20505;-68
2023/09/16 08:25:30;;;;;;;2.88;1.80;;;28.80;86.00;;;;;;5060546;28;20033;-68
2023/09/16 08:27:55;;;;;;;2.80;1.52;;;29.30;86.20;;;;;;5046406;28;20032;-68
2023/09/16 08:30:21;;;;;;;3.42;1.92;;;29.40;83.50;;;;;;5062591;28;20409;-68
2023/09/16 08:32:47;;;;;;;2.47;1.80;;;29.30;82.50;;;;;;5054617;28;20039;-68
2023/09/16 08:35:13;;;;;;;2.80;2.30;;;29.00;83.90;;;;;;5058344;28;20023;-67
2023/09/16 08:37:38;;;;;;;4.68;1.95;;;29.70;81.90;;;;;;5042149;28;20166;-68
2023/09/16 08:40:04;;;;;;;9.40;2.03;;;28.90;83.20;;;;;;5047073;28;20035;-68
2023/09/16 08:42:43;;;;;;;2.78;2.05;;;28.60;83.70;;;;;;5055674;28;20576;-68
2023/09/16 08:45:14;;;;;;;2.83;2.10;;;27.90;85.80;;;;;;5049962;28;20025;-68
2023/09/16 08:47:43;;;;;;;4.18;1.98;;;28.00;88.30;;;;;;5041284;28;20402;-68
2023/09/16 08:50:10;;;;;;;2.95;2.15;;;28.50;86.20;;;;;;5048722;28;20039;-68
2023/09/16 08:52:46;;;;;;;3.10;2.00;;;28.50;86.10;;;;;;5055972;28;20021;-68
2023/09/16 08:55:13;;;;;;;2.30;1.80;;;28.70;86.10;;;;;;5047871;28;20021;-67
2023/09/16 08:57:45;;;;;;;2.78;2.00;;;28.40;87.20;;;;;;5048908;28;20037;-68
2023/09/16 09:00:11;;;;;;;2.28;1.98;;;28.40;87.40;;;;;;5055589;28;20029;-68
2023/09/16 09:02:39;;;;;;;3.08;1.98;;;28.80;86.10;;;;;;5054757;28;20032;-68
2023/09/16 09:05:07;;;;;;;4.93;2.47;;;28.90;85.70;;;;;;5050234;28;20044;-68
2023/09/16 09:07:37;;;;;;;2.95;2.17;;;28.90;85.30;;;;;;5046086;28;20040;-68
2023/09/16 09:10:04;;;;;;;5.20;2.05;;;28.80;86.30;;;;;;5046590;28;20025;-68
2023/09/16 09:12:32;;;;;;;4.47;1.90;;;29.10;84.00;;;;;;5053629;28;20013;-68
2023/09/16 09:15:02;;;;;;;3.60;2.22;;;28.80;85.80;;;;;;5042897;28;20021;-68
2023/09/16 09:17:32;;;;;;;3.25;2.17;;;29.40;86.00;;;;;;5056556;28;20432;-68
2023/09/16 09:19:58;;;;;;;3.33;2.20;;;29.40;85.40;;;;;;5048819;28;20021;-68
2023/09/16 09:22:24;;;;;;;2.75;2.15;;;29.60;83.80;;;;;;5049758;28;20092;-68
2023/09/16 09:24:50;;;;;;;2.80;1.95;;;29.50;86.50;;;;;;5050185;28;20387;-68
2023/09/16 09:27:15;;;;;;;2.85;2.00;;;29.00;83.90;;;;;;5044763;28;20026;-67
2023/09/16 09:29:41;;;;;;;7.47;2.35;;;28.70;86.00;;;;;;5050139;28;20029;-68
2023/09/16 09:32:09;;;;;;;6.88;3.50;;;29.20;84.70;;;;;;5047742;28;20033;-68
2023/09/16 09:34:36;;;;;;;3.17;2.38;;;29.10;86.30;;;;;;5052017;28;20055;-68
2023/09/16 09:37:01;;;;;;;4.05;2.17;;;29.30;86.50;;;;;;5051428;28;20017;-65
2023/09/16 09:39:27;;;;;;;5.20;2.70;;;29.70;84.30;;;;;;5053106;28;20116;-66
2023/09/16 09:41:52;;;;;;;5.65;2.30;;;29.50;84.30;;;;;;5058701;28;20105;-65
2023/09/16 09:44:18;;;;;;;4.18;2.60;;;29.10;85.10;;;;;;5048784;28;20401;-65
2023/09/16 09:46:44;;;;;;;3.85;2.38;;;29.50;86.00;;;;;;5051681;28;20074;-68
2023/09/16 09:49:12;;;;;;;3.63;2.13;;;29.10;84.70;;;;;;5072072;28;20048;-68
2023/09/16 09:51:38;;;;;;;3.58;2.30;;;28.90;84.80;;;;;;5047000;28;20032;-68
2023/09/16 09:54:06;;;;;;;4.97;2.50;;;29.00;86.30;;;;;;5040662;28;20398;-68
2023/09/16 09:56:32;;;;;;;3.97;2.25;;;28.70;86.30;;;;;;5053130;28;20431;-68
2023/09/16 09:58:58;;;;;;;10.65;2.50;;;28.80;86.60;;;;;;5032691;28;20162;-68
2023/09/16 10:01:29;;;;;;;2.17;1.77;;;29.00;86.70;;;;;;5036656;28;20082;-67
2023/09/16 10:03:55;;;;;;;2.70;2.00;;;28.90;87.40;;;;;;5039346;28;20111;-68
2023/09/16 10:06:20;;;;;;;4.05;2.65;;;28.80;86.30;;;;;;5047544;28;21027;-68
2023/09/16 10:08:47;;;;;;;5.63;3.17;;;28.70;88.00;;;;;;5072474;28;20036;-68
2023/09/16 10:11:13;;;;;;;7.72;3.20;;;28.30;87.20;;;;;;5064970;28;20021;-67
2023/09/16 10:13:39;;;;;;;3.95;2.55;;;28.20;87.90;;;;;;5059253;28;20407;-67
2023/09/16 10:16:06;;;;;;;3.53;2.30;;;27.80;89.50;;;;;;5065271;28;20029;-68
2023/09/16 10:18:32;;;;;;;6.15;3.08;;;27.70;91.00;;;;;;5045264;28;20037;-68
2023/09/16 10:20:58;;;;;;;3.03;2.60;;;27.80;90.10;;;;;;5049767;28;20025;-67
2023/09/16 10:23:24;;;;;;;4.18;2.47;;;27.40;90.30;;;;;;5040844;28;20021;-67
2023/09/16 10:25:50;;;;;;;4.63;2.70;;;27.10;91.80;;;;;;5047047;28;20021;-67
2023/09/16 10:28:17;;;;;;;3.45;2.65;;;27.10;91.20;;;;;;5044127;28;20031;-67
2023/09/16 10:30:43;;;;;;;4.97;3.30;;;27.10;90.70;;;;;;5048189;28;20147;-67
2023/09/16 10:33:10;;;;;;;4.13;2.97;;;27.00;91.20;;;;;;5049068;28;20048;-67
2023/09/16 10:35:40;;;;;;;3.33;2.63;;;26.80;92.20;;;;;;5045430;28;20031;-67
2023/09/16 10:38:08;;;;;;;5.03;3.00;;;26.70;92.70;;;;;;5050266;28;20029;-67
2023/09/16 10:40:35;;;;;;;7.53;3.10;;;26.70;92.60;;;;;;5045089;28;20110;-67
2023/09/16 10:43:02;;;;;;;3.88;2.70;;;26.80;92.90;;;;;;5053758;28;20155;-68
2023/09/16 10:45:27;;;;;;;5.60;2.75;;;26.90;92.60;;;;;;5045563;28;20021;-67
2023/09/16 10:47:53;;;;;;;6.57;3.70;;;26.70;92.70;;;;;;5045993;28;20048;-67
2023/09/16 10:50:25;;;;;;;7.55;2.80;;;26.70;93.30;;;;;;5049144;28;20115;-67
2023/09/16 10:52:55;;;;;;;7.10;2.95;;;26.70;93.00;;;;;;5048940;28;20032;-67
2023/09/16 10:55:24;;;;;;;4.15;3.03;;;26.70;93.00;;;;;;5043016;28;20148;-65
2023/09/16 10:57:57;;;;;;;7.30;3.15;;;26.50;93.20;;;;;;5043808;28;20040;-67
2023/09/16 11:00:24;;;;;;;;;;;26.50;93.40;;;;;;5040304;28;20121;-67
2023/09/16 11:02:57;;;;;;;4.10;2.55;;;26.20;93.30;;;;;;5046460;28;19924;-67
2023/09/16 11:05:23;;;;;;;4.22;2.78;;;26.20;94.40;;;;;;5036903;28;20021;-66
2023/09/16 11:07:49;;;;;;;7.00;3.35;;;26.30;94.40;;;;;;5037622;28;20025;-67
2023/09/16 11:10:15;;;;;;;6.03;3.22;;;26.30;93.60;;;;;;5041003;28;21553;-67
2023/09/16 11:12:41;;;;;;;6.35;3.00;;;26.00;93.20;;;;;;5043286;28;20036;-67
2023/09/16 11:15:08;;;;;;;4.35;2.88;;;26.00;93.90;;;;;;5043912;28;20074;-67
2023/09/16 11:17:37;;;;;;;5.22;3.38;;;26.00;95.50;;;;;;5062203;28;20131;-67
2023/09/16 11:20:18;;;;;;;5.20;2.83;;;26.10;94.90;;;;;;5070488;28;20028;-67
2023/09/16 11:22:47;;;;;;;3.72;2.88;;;26.10;95.70;;;;;;5063562;28;20028;-67
2023/09/16 11:25:14;;;;;;;4.72;2.83;;;26.10;95.40;;;;;;5058483;28;20013;-67
2023/09/16 11:27:40;;;;;;;7.18;3.55;;;26.20;95.70;;;;;;5067408;28;20016;-67
2023/09/16 11:30:13;;;;;;;3.55;2.60;;;26.10;94.00;;;;;;5068894;28;20492;-68
2023/09/16 11:33:00;;;;;;;3.63;2.72;;;26.20;94.70;;;;;;5069383;28;20040;-68
2023/09/16 11:35:26;;;;;;;3.30;2.80;;;26.20;94.10;;;;;;5069137;28;20064;-68
2023/09/16 11:37:56;;;;;;;4.13;2.85;;;26.10;95.10;;;;;;5071465;28;20028;-66
2023/09/16 11:40:29;;;;;;;6.10;2.88;;;26.10;94.60;;;;;;5075623;28;20533;-67
2023/09/16 11:42:59;;;;;;;4.45;2.88;;;26.20;95.20;;;;;;5072586;28;20035;-67
2023/09/16 11:45:25;;;;;;;4.30;2.53;;;26.10;94.80;;;;;;5058036;28;20036;-67
2023/09/16 11:47:52;;;;;;;3.85;3.30;;;26.10;95.80;;;;;;5053983;28;20021;-67
2023/09/16 11:50:25;;;;;;;4.18;3.20;;;26.20;95.40;;;;;;5057559;28;20480;-67
2023/09/16 11:52:50;;;;;;;4.80;2.78;;;26.10;95.30;;;;;;5055536;28;20060;-67
2023/09/16 11:55:17;;;;;;;4.43;3.10;;;26.10;95.50;;;;;;5058715;28;20059;-68
2023/09/16 11:57:46;;;;;;;5.45;3.50;;;26.20;95.70;;;;;;5058451;28;20033;-67
2023/09/16 12:00:13;;;;;;;4.90;3.10;;;26.10;95.80;;;;;;5053652;28;20028;-67
2023/09/16 12:02:41;;;;;;;4.03;2.75;;;26.10;96.50;;;;;;5056562;28;20662;-67
2023/09/16 12:05:06;;;;;;;4.15;3.10;;;26.10;96.70;;;;;;5069263;28;20028;-68
2023/09/16 12:07:35;;;;;;;5.93;3.28;;;26.00;96.50;;;;;;5068721;28;20025;-67
2023/09/16 12:10:06;;;;;;;4.60;3.15;;;26.00;96.50;;;;;;5073379;28;20378;-67
2023/09/16 12:12:31;;;;;;;4.18;3.15;;;26.10;95.90;;;;;;5073224;28;20028;-68
2023/09/16 12:14:59;;;;;;;5.18;3.22;;;26.10;95.80;;;;;;5074254;28;20149;-67
2023/09/16 12:17:25;;;;;;;5.82;3.10;;;26.10;95.80;;;;;;5065559;28;20510;-68
2023/09/16 12:19:52;;;;;;;5.70;3.05;;;26.10;95.70;;;;;;5066975;28;20116;-67
2023/09/16 12:22:18;;;;;;;4.57;2.58;;;26.00;96.30;;;;;;5049163;28;20046;-67
2023/09/16 12:24:45;;;;;;;3.70;2.85;;;26.00;95.70;;;;;;5064843;28;20082;-68
2023/09/16 12:27:11;;;;;;;5.95;3.47;;;26.00;96.40;;;;;;5071376;28;20091;-67
2023/09/16 12:29:37;;;;;;;4.93;3.10;;;26.00;95.90;;;;;;5069456;28;20020;-68
2023/09/16 12:32:14;;;;;;;8.25;3.30;;;26.00;96.10;;;;;;5069680;28;20033;-68
2023/09/16 12:34:40;;;;;;;5.78;3.47;;;26.00;96.20;;;;;;5067512;28;20032;-67
2023/09/16 12:37:06;;;;;;;4.32;2.80;;;26.00;95.80;;;;;;5067194;28;20052;-67
2023/09/16 12:39:36;;;;;;;8.45;3.05;;;26.00;96.30;;;;;;5064703;28;20063;-68
2023/09/16 12:42:03;;;;;;;4.80;2.85;;;26.00;96.10;;;;;;5071121;28;20478;-68
2023/09/16 12:44:30;;;;;;;3.45;2.70;;;25.90;96.50;;;;;;5068021;28;20041;-68
2023/09/16 12:46:57;;;;;;;3.75;2.88;;;26.00;95.80;;;;;;5059501;28;20078;-67